Time;durP1;ratioP1;P1;durP2;ratioP2;P2;SDS_P1;SDS_P2;PMS_P1;PMS_P2;Temp;Humidity;BMP_temperature;BMP_pressure;BME280_temperature;BME280_humidity;BME280_pressure;Samples;Min_cycle;Max_cycle;Signal;HPM_P1;HPM_P2
2022/09/19 00:01:20;;;;;;;;;;;8.90;99.90;;;7.77;100.00;95434.78;10443376;28;3213;-72
2022/09/19 00:06:23;;;;;;;;;;;8.90;99.90;;;7.68;100.00;95425.66;10443148;28;3196;-74
2022/09/19 00:11:27;;;;;;;;;;;8.70;99.90;;;7.68;100.00;95428.31;10429282;28;3542;-73
2022/09/19 00:16:35;;;;;;;;;;;8.60;99.90;;;7.71;100.00;95427.81;10444714;28;3180;-74
2022/09/19 00:21:38;;;;;;;;;;;8.60;99.90;;;7.73;100.00;95423.00;10452375;28;3268;-73
2022/09/19 00:26:41;;;;;;;;;;;8.60;99.90;;;7.81;100.00;95435.84;10449360;28;3136;-72
2022/09/19 00:31:44;;;;;;;;;;;9.00;99.90;;;7.74;100.00;95427.28;10447643;28;3179;-76
2022/09/19 00:36:47;;;;;;;;;;;8.70;99.90;;;7.72;100.00;95432.88;10442934;28;3280;-76
2022/09/19 00:41:50;;;;;;;;;;;8.60;99.90;;;7.67;100.00;95434.75;10454838;28;3304;-77
2022/09/19 00:46:53;;;;;;;;;;;8.10;99.90;;;7.66;100.00;95441.97;10437522;28;3263;-73
2022/09/19 00:51:56;;;;;;;;;;;8.70;99.90;;;7.52;100.00;95436.31;10433190;28;3241;-74
2022/09/19 00:57:00;;;;;;;;;;;8.40;99.90;;;7.46;100.00;95437.34;10449143;28;3184;-73
2022/09/19 01:02:04;;;;;;;;;;;8.40;99.90;;;7.46;100.00;95445.38;10450198;28;3100;-72
2022/09/19 01:07:07;;;;;;;;;;;8.40;99.90;;;7.45;100.00;95449.13;10447729;28;3276;-73
2022/09/19 01:12:12;;;;;;;;;;;8.20;99.90;;;7.39;100.00;95450.16;10449111;28;3121;-71
2022/09/19 01:17:19;;;;;;;;;;;8.40;99.90;;;7.38;100.00;95448.56;10445632;28;3192;-71
2022/09/19 01:22:24;;;;;;;;;;;8.30;99.90;;;7.43;100.00;95472.63;10447968;28;3261;-74
2022/09/19 01:27:26;;;;;;;;;;;8.40;99.90;;;6.61;100.00;95481.22;10447227;28;3221;-73
2022/09/19 01:32:31;;;;;;;;;;;7.90;99.90;;;6.32;100.00;95478.03;10451732;28;3141;-75
2022/09/19 01:37:35;;;;;;;;;;;7.40;99.90;;;6.03;100.00;95485.50;10446752;28;3128;-73
2022/09/19 01:42:37;;;;;;;;;;;7.10;99.90;;;5.96;100.00;95504.38;10444958;28;3160;-74
2022/09/19 01:47:40;;;;;;;;;;;6.90;99.90;;;5.88;100.00;95504.81;10437817;28;3208;-73
2022/09/19 01:52:47;;;;;;;;;;;6.90;99.90;;;5.87;100.00;95506.66;10443186;28;3219;-73
2022/09/19 01:57:50;;;;;;;;;;;6.80;99.90;;;5.90;100.00;95511.50;10438941;28;3208;-72
2022/09/19 02:02:54;;;;;;;;;;;6.90;99.90;;;5.92;100.00;95512.09;10450092;28;3343;-74
2022/09/19 02:08:00;;;;;;;;;;;7.00;99.90;;;5.95;100.00;95522.25;10427609;28;3520;-72
2022/09/19 02:13:04;;;;;;;;;;;7.10;99.90;;;5.87;100.00;95520.00;10447588;28;3184;-73
2022/09/19 02:18:07;;;;;;;;;;;7.00;99.90;;;5.96;100.00;95523.84;10444165;28;3283;-72
2022/09/19 02:23:10;;;;;;;;;;;7.00;99.90;;;5.98;100.00;95510.28;10445522;28;3184;-72
2022/09/19 02:28:13;;;;;;;;;;;7.10;99.90;;;5.85;100.00;95523.97;10442817;28;3195;-73
2022/09/19 02:33:16;;;;;;;;;;;7.10;99.90;;;5.74;100.00;95531.06;10442543;28;3288;-74
2022/09/19 02:38:21;;;;;;;;;;;7.00;99.90;;;5.68;100.00;95534.72;10442325;28;3203;-73
2022/09/19 02:43:24;;;;;;;;;;;6.90;99.90;;;5.74;100.00;95546.25;10443614;28;3181;-73
2022/09/19 02:48:28;;;;;;;;;;;7.00;99.90;;;5.73;100.00;95540.13;10430663;28;3184;-73
2022/09/19 02:53:31;;;;;;;;;;;6.90;99.90;;;5.78;100.00;95548.16;10441647;28;3120;-73
2022/09/19 02:58:36;;;;;;;;;;;7.00;99.90;;;5.73;100.00;95556.13;10435463;28;3073;-72
2022/09/19 03:09:00;;;;;;;;;;;6.90;99.90;;;5.74;100.00;95559.59;10434494;28;3217;-74
2022/09/19 03:14:03;;;;;;;;;;;6.80;99.90;;;5.76;100.00;95560.94;10436857;28;3224;-74
2022/09/19 03:19:06;;;;;;;;;;;6.80;99.90;;;5.75;100.00;95564.66;10430627;28;3257;-76
2022/09/19 03:24:11;;;;;;;;;;;6.90;99.90;;;5.72;100.00;95565.16;10442473;28;3422;-77
2022/09/19 03:29:14;;;;;;;;;;;6.80;99.90;;;5.66;100.00;95574.97;10446488;28;3140;-78
2022/09/19 03:34:17;;;;;;;;;;;6.20;99.90;;;5.65;100.00;95580.53;10447020;28;3209;-75
2022/09/19 03:39:20;;;;;;;;;;;6.80;99.90;;;5.62;100.00;95591.72;10441953;28;3366;-72
2022/09/19 03:44:23;;;;;;;;;;;6.70;99.90;;;5.57;100.00;95594.28;10438515;28;3505;-74
2022/09/19 03:49:25;;;;;;;;;;;6.70;99.90;;;5.50;100.00;95591.81;10444425;28;3140;-75
2022/09/19 03:54:29;;;;;;;;;;;6.80;99.90;;;5.46;100.00;95614.66;10443799;28;3244;-74
2022/09/19 03:59:32;;;;;;;;;;;6.80;99.90;;;5.39;100.00;95622.84;10445986;28;3328;-77
2022/09/19 04:04:39;;;;;;;;;;;6.80;99.90;;;5.35;100.00;95623.59;10444229;28;3526;-73
2022/09/19 04:09:42;;;;;;;;;;;6.60;99.90;;;5.30;100.00;95629.66;10444426;28;3128;-73
2022/09/19 04:14:46;;;;;;;;;;;6.60;99.90;;;5.31;100.00;95628.59;10431757;28;3207;-76
2022/09/19 04:19:52;;;;;;;;;;;6.70;99.90;;;5.24;100.00;95637.81;10448507;28;3216;-71
2022/09/19 04:24:55;;;;;;;;;;;6.60;99.90;;;5.30;100.00;95637.66;10441911;28;3312;-71
2022/09/19 04:29:59;;;;;;;;;;;6.50;99.90;;;5.32;100.00;95648.84;10446543;28;3208;-72
2022/09/19 04:35:02;;;;;;;;;;;6.40;99.90;;;5.30;100.00;95648.31;10450932;28;3259;-72
2022/09/19 04:40:04;;;;;;;;;;;6.40;99.90;;;5.33;100.00;95653.13;10452289;28;3203;-72
2022/09/19 04:45:07;;;;;;;;;;;6.40;99.90;;;5.28;100.00;95662.91;10448627;28;3168;-75
2022/09/19 04:50:10;;;;;;;;;;;6.30;99.90;;;5.25;100.00;95666.06;10448760;28;3144;-73
2022/09/19 04:55:13;;;;;;;;;;;6.30;99.90;;;5.27;100.00;95664.75;10456500;28;3140;-73
2022/09/19 05:00:36;;;;;;;;;;;6.30;99.90;;;5.19;100.00;95672.38;10444807;28;3295;-71
2022/09/19 05:05:44;;;;;;;;;;;6.30;99.90;;;5.18;100.00;95681.41;10453710;28;3241;-74
2022/09/19 05:10:47;;;;;;;;;;;6.30;99.90;;;5.28;100.00;95681.56;10453541;28;3267;-74
2022/09/19 05:15:51;;;;;;;;;;;6.30;99.90;;;5.35;100.00;95691.03;10449318;28;3189;-73
2022/09/19 05:20:54;;;;;;;;;;;6.40;99.90;;;5.55;100.00;95697.72;10437600;28;3207;-73
2022/09/19 05:25:59;;;;;;;;;;;6.50;99.90;;;5.66;100.00;95705.66;10447751;28;3177;-72
2022/09/19 05:31:05;;;;;;;;;;;6.60;99.90;;;5.83;100.00;95704.81;10448721;28;3153;-73
2022/09/19 05:36:09;;;;;;;;;;;6.60;99.90;;;5.98;100.00;95718.41;10447426;28;3205;-72
2022/09/19 05:41:12;;;;;;;;;;;6.90;99.90;;;6.06;100.00;95722.50;10448587;28;3287;-73
2022/09/19 05:46:15;;;;;;;;;;;7.00;99.90;;;6.17;100.00;95727.75;10448990;28;3232;-74
2022/09/19 05:51:17;;;;;;;;;;;7.10;99.90;;;6.37;100.00;95726.38;10449773;28;3265;-73
2022/09/19 05:56:20;;;;;;;;;;;7.20;99.90;;;6.55;100.00;95726.06;10443596;28;3243;-73
2022/09/19 06:01:23;;;;;;;;;;;7.30;99.90;;;6.79;100.00;95737.28;10439842;28;3168;-73
2022/09/19 06:06:27;;;;;;;;;;;7.50;99.90;;;6.92;100.00;95747.59;10430371;28;3164;-73
2022/09/19 06:11:29;;;;;;;;;;;7.70;99.90;;;6.97;100.00;95752.19;10443651;28;3193;-72
2022/09/19 06:16:33;;;;;;;;;;;7.80;99.90;;;6.95;100.00;95765.00;10444405;28;3216;-77
2022/09/19 06:21:35;;;;;;;;;;;7.80;99.90;;;6.94;100.00;95766.88;10443304;28;3235;-75
2022/09/19 06:26:39;;;;;;;;;;;7.80;99.90;;;6.98;100.00;95770.63;10433559;28;3124;-74
2022/09/19 06:31:41;;;;;;;;;;;7.90;99.90;;;7.10;100.00;95780.38;10433850;28;3217;-73
2022/09/19 06:36:44;;;;;;;;;;;8.00;99.90;;;7.15;100.00;95775.91;10438064;28;3304;-74
2022/09/19 06:41:47;;;;;;;;;;;8.00;99.90;;;7.24;100.00;95790.41;10435604;28;3331;-75
2022/09/19 06:46:50;;;;;;;;;;;8.10;99.90;;;7.19;100.00;95793.06;10434247;28;3411;-73
2022/09/19 06:51:54;;;;;;;;;;;8.20;99.90;;;7.54;100.00;95789.91;10435245;28;3336;-72
2022/09/19 06:56:57;;;;;;;;;;;8.30;99.90;;;7.88;100.00;95800.38;10434509;28;3311;-72
2022/09/19 07:02:00;;;;;;;;;;;8.60;99.90;;;8.09;100.00;95802.16;10436639;28;3474;-71
2022/09/19 07:07:06;;;;;;;;;;;9.00;99.90;;;8.07;100.00;95814.97;10435243;28;3270;-68
2022/09/19 07:12:09;;;;;;;;;;;9.10;99.90;;;7.96;100.00;95820.53;10434922;28;3376;-71
2022/09/19 07:17:16;;;;;;;;;;;9.10;99.90;;;7.93;100.00;95823.69;10436580;28;3280;-72
2022/09/19 07:22:19;;;;;;;;;;;9.00;99.90;;;7.91;100.00;95837.34;10432688;28;3312;-72
2022/09/19 07:27:22;;;;;;;;;;;8.90;99.90;;;8.06;100.00;95844.69;10435889;28;3363;-73
2022/09/19 07:32:25;;;;;;;;;;;9.00;99.90;;;8.23;100.00;95845.34;10423870;28;3458;-72
2022/09/19 07:37:29;;;;;;;;;;;9.20;99.90;;;8.13;100.00;95859.47;10434256;28;3379;-70
2022/09/19 07:42:33;;;;;;;;;;;9.20;99.90;;;8.13;100.00;95864.81;10420581;28;3328;-69
2022/09/19 07:47:35;;;;;;;;;;;9.20;99.90;;;8.32;100.00;95867.91;10432512;28;3316;-69
2022/09/19 07:52:38;;;;;;;;;;;9.20;99.90;;;8.40;100.00;95877.38;10428376;28;3289;-70
2022/09/19 07:57:41;;;;;;;;;;;9.30;99.90;;;8.48;100.00;95894.84;10424822;28;3287;-70
2022/09/19 08:02:44;;;;;;;;;;;9.40;99.90;;;8.50;100.00;95909.59;10432158;28;3379;-71
2022/09/19 08:07:47;;;;;;;;;;;9.40;99.90;;;8.53;100.00;95909.09;10433465;28;3351;-69
2022/09/19 08:12:50;;;;;;;;;;;9.40;99.90;;;8.55;100.00;95922.22;10426544;28;3317;-69
2022/09/19 08:17:53;;;;;;;;;;;9.50;99.90;;;8.67;100.00;95925.53;10450535;28;3358;-69
2022/09/19 08:22:57;;;;;;;;;;;9.60;99.90;;;9.06;100.00;95919.88;10428024;28;3308;-70
2022/09/19 08:28:03;;;;;;;;;;;9.70;99.90;;;9.48;100.00;95931.34;10416711;28;3388;-69
2022/09/19 08:33:07;;;;;;;;;;;10.00;99.90;;;9.26;100.00;95932.56;10435950;28;3411;-68
2022/09/19 08:38:15;;;;;;;;;;;10.20;99.90;;;9.13;100.00;95934.66;10439640;28;3304;-68
2022/09/19 08:43:17;;;;;;;;;;;10.10;99.90;;;9.34;100.00;95934.75;10436231;28;3292;-67
2022/09/19 08:48:21;;;;;;;;;;;10.10;99.90;;;9.77;100.00;95933.56;10439911;28;3392;-69
2022/09/19 08:53:24;;;;;;;;;;;10.30;99.90;;;10.18;100.00;95941.72;10440049;28;3339;-69
2022/09/19 08:58:27;;;;;;;;;;;11.00;99.90;;;10.47;100.00;95942.03;10444381;28;3307;-70
2022/09/19 09:03:30;;;;;;;;;;;11.20;99.90;;;10.34;100.00;95937.22;10436139;28;3276;-67
2022/09/19 09:08:33;;;;;;;;;;;11.10;99.90;;;10.43;100.00;95941.78;10438058;28;3387;-68
2022/09/19 09:13:36;;;;;;;;;;;11.00;99.90;;;10.56;100.00;95951.19;10438864;28;3316;-67
2022/09/19 09:19:02;;;;;;;;;;;11.20;99.90;;;10.67;100.00;95949.31;10441653;28;3347;-67
2022/09/19 09:24:07;;;;;;;;;;;11.60;99.90;;;11.10;100.00;95945.22;10438263;28;3304;-69
2022/09/19 09:29:30;;;;;;;;;;;11.60;99.90;;;10.75;100.00;95944.22;10424498;28;3295;-66
2022/09/19 09:34:33;;;;;;;;;;;11.70;99.90;;;11.04;100.00;95946.31;10433341;28;3335;-67
2022/09/19 09:39:50;;;;;;;;;;;;;;;11.82;100.00;95940.41;10438851;28;3367;-67
2022/09/19 09:44:53;;;;;;;;;;;;;;;12.47;97.05;95940.28;10441478;28;3410;-66
2022/09/19 09:49:56;;;;;;;;;;;;;;;12.48;100.00;95936.53;10433193;28;3501;-67
2022/09/19 10:05:43;;;;;;;;;;;;;;;11.81;98.23;95958.47;10431962;28;3304;-68
2022/09/19 10:10:46;;;;;;;;;;;;;;;12.26;99.27;95958.50;10435689;28;3289;-68
2022/09/19 10:15:50;;;;;;;;;;;;;;;12.50;92.50;95947.81;10435755;28;3943;-67
2022/09/19 10:20:53;;;;;;;;;;;;;;;12.97;91.67;95953.34;10432129;28;3335;-68
2022/09/19 10:25:56;;;;;;;;;;;;;;;12.56;92.19;95950.19;10438459;28;3363;-68
2022/09/19 10:30:59;;;;;;;;;;;;;;;12.17;91.10;95952.91;10440152;28;3378;-66
2022/09/19 10:36:03;;;;;;;;;;;;;;;13.04;89.80;95958.44;10442028;28;3393;-68
2022/09/19 10:41:09;;;;;;;;;;;;;;;13.60;87.21;95951.66;10440249;28;3391;-68
2022/09/19 10:46:11;;;;;;;;;;;13.70;99.90;;;13.41;85.51;95965.88;10445258;28;3289;-69
2022/09/19 10:51:15;;;;;;;;;;;13.80;99.90;;;13.13;89.05;95958.59;10445512;28;3280;-68
2022/09/19 10:56:22;;;;;;;;;;;13.70;99.90;;;13.56;86.23;95956.03;10446533;28;3339;-72
2022/09/19 11:01:25;;;;;;;;;;;;;;;13.72;82.15;95954.75;10435037;28;3351;-67
2022/09/19 11:06:29;;;;;;;;;;;;;;;13.43;84.45;95968.31;10437611;28;3225;-68
2022/09/19 11:11:45;;;;;;;;;;;;;;;13.51;78.85;95965.78;10416823;28;3253;-68
2022/09/19 11:16:49;;;;;;;;;;;14.00;99.90;;;13.71;87.29;95963.94;10434197;28;3343;-76
2022/09/19 11:21:52;;;;;;;;;;;14.10;99.90;;;14.09;82.28;95955.91;10436321;28;3889;-74
2022/09/19 11:26:56;;;;;;;;;;;14.50;99.90;;;14.02;76.92;95962.47;10430449;28;3312;-75
2022/09/19 11:32:03;;;;;;;;;;;14.70;99.90;;;13.83;76.11;95958.94;10429905;28;3253;-74
2022/09/19 11:37:27;;;;;;;;;;;14.70;99.90;;;13.60;77.07;95962.44;10437924;28;3761;-75
2022/09/19 11:42:30;;;;;;;;;;;14.60;99.90;;;13.72;79.64;95954.75;10436266;28;3205;-74
2022/09/19 11:47:34;;;;;;;;;;;14.40;99.90;;;13.93;77.79;95949.88;10434909;28;3256;-74
2022/09/19 11:52:37;;;;;;;;;;;14.60;99.90;;;13.78;74.17;95943.59;10436276;28;3250;-68
2022/09/19 11:57:41;;;;;;;;;;;14.60;99.90;;;13.71;76.85;95942.34;10433386;28;3308;-69
2022/09/19 12:02:46;;;;;;;;;;;14.40;99.90;;;13.72;74.36;95938.53;10437584;28;3380;-70
2022/09/19 12:07:54;;;;;;;;;;;14.60;99.90;;;13.56;75.84;95939.81;10442177;28;3631;-68
2022/09/19 12:12:57;;;;;;;;;;;14.50;99.90;;;13.63;72.19;95929.47;10440498;28;3256;-73
2022/09/19 12:18:00;;;;;;;;;;;14.60;99.90;;;13.39;74.29;95930.28;10439495;28;3855;-70
2022/09/19 12:24:52;;;;;;;;;;;14.30;99.90;;;13.77;74.14;95916.88;10441949;28;3379;-68
2022/09/19 12:28:30;;;;;;;;;;;14.30;99.90;;;13.66;71.64;95924.28;10439649;28;3303;-69
2022/09/19 12:33:33;;;;;;;;;;;14.60;99.90;;;13.61;72.80;95910.03;10437340;28;3495;-68
2022/09/19 12:38:36;;;;;;;;;;;14.50;99.90;;;13.48;74.03;95914.25;10441620;28;3335;-68
2022/09/19 12:43:39;;;;;;;;;;;14.50;99.90;;;13.70;73.36;95898.31;10440412;28;3272;-66
2022/09/19 12:48:42;;;;;;;;;;;14.40;99.90;;;14.03;75.94;95893.81;10408394;28;3408;-68
2022/09/19 12:53:46;;;;;;;;;;;14.70;99.90;;;14.20;73.55;95900.59;10435257;28;3622;-69
2022/09/19 12:58:52;;;;;;;;;;;14.90;99.90;;;14.01;74.28;95900.59;10434352;28;3285;-68
2022/09/19 13:03:54;;;;;;;;;;;14.80;99.90;;;13.78;75.66;95908.47;10432899;28;3321;-67
2022/09/19 13:09:02;;;;;;;;;;;14.60;99.90;;;14.09;72.36;95893.72;10439894;28;3260;-69
2022/09/19 13:14:05;;;;;;;;;;;14.70;99.90;;;14.26;72.31;95892.13;10440273;28;3307;-68
2022/09/19 13:24:29;;;;;;;;;;;15.20;99.90;;;14.61;65.25;95884.56;10428428;28;3275;-68
2022/09/19 13:29:33;;;;;;;;;;;15.40;99.90;;;14.07;66.78;95892.13;10435006;28;3408;-67
2022/09/19 13:34:39;;;;;;;;;;;15.20;99.90;;;13.50;70.79;95896.66;10430868;28;3350;-70
2022/09/19 13:39:42;;;;;;;;;;;14.70;99.90;;;13.57;71.35;95887.41;10430226;28;3300;-67
2022/09/19 13:44:44;;;;;;;;;;;14.40;99.90;;;13.48;69.68;95896.13;10415692;28;3360;-67
2022/09/19 13:49:48;;;;;;;;;;;14.40;99.90;;;13.30;71.95;95896.91;10434082;28;3418;-67
2022/09/19 13:54:52;;;;;;;;;;;14.30;99.90;;;13.04;75.58;95903.63;10435064;28;3311;-67
2022/09/19 13:59:58;;;;;;;;;;;14.10;99.90;;;12.96;71.58;95900.47;10439326;28;3339;-68
2022/09/19 14:05:04;;;;;;;;;;;13.90;99.90;;;13.42;69.99;95905.41;10437663;28;3359;-68
2022/09/19 14:10:07;;;;;;;;;;;14.00;99.90;;;13.52;69.59;95901.78;10434231;28;3346;-69
2022/09/19 14:15:14;;;;;;;;;;;14.30;99.90;;;13.84;68.66;95901.09;10440637;28;3337;-70
2022/09/19 14:20:17;;;;;;;;;;;14.50;99.90;;;14.10;73.48;95890.72;10434860;28;3312;-72
2022/09/19 14:25:20;;;;;;;;;;;14.70;99.90;;;14.42;73.66;95900.78;10437206;28;3541;-74
2022/09/19 14:30:23;;;;;;;;;;;15.00;99.90;;;14.24;71.05;95890.78;10438396;28;3301;-68
2022/09/19 14:35:26;;;;;;;;;;;15.10;99.90;;;14.00;72.08;95896.31;10441318;28;3319;-70
2022/09/19 14:40:29;;;;;;;;;;;15.00;99.90;;;13.55;76.03;95890.41;10434491;28;3306;-68
2022/09/19 14:45:38;;;;;;;;;;;14.70;99.90;;;13.15;75.77;95892.44;10435023;28;3320;-70
2022/09/19 14:50:43;;;;;;;;;;;14.30;99.90;;;12.73;77.15;95885.06;10433553;28;3256;-71
2022/09/19 14:55:46;;;;;;;;;;;13.90;99.90;;;12.62;74.89;95878.16;10436496;28;3319;-66
2022/09/19 15:00:55;;;;;;;;;;;13.70;99.90;;;12.78;76.52;95876.91;10434954;28;3304;-66
2022/09/19 15:05:58;;;;;;;;;;;13.70;99.90;;;12.99;75.34;95878.31;10432447;28;3293;-68
2022/09/19 15:11:00;;;;;;;;;;;13.80;99.90;;;12.91;72.17;95881.63;10424040;28;3340;-68
2022/09/19 15:16:03;;;;;;;;;;;13.90;99.90;;;12.87;72.23;95880.59;10430225;28;3343;-67
2022/09/19 15:21:07;;;;;;;;;;;14.00;99.90;;;12.88;73.66;95873.31;10434648;28;3324;-67
2022/09/19 15:26:11;;;;;;;;;;;13.90;99.90;;;12.96;75.10;95884.28;10427139;28;3347;-67
2022/09/19 15:31:13;;;;;;;;;;;13.90;99.90;;;13.08;72.02;95880.38;10426786;28;3277;-67
2022/09/19 15:36:17;;;;;;;;;;;13.90;99.90;;;13.14;69.05;95884.63;10426600;28;3362;-69
2022/09/19 15:41:19;;;;;;;;;;;14.00;99.90;;;12.85;71.18;95898.16;10435196;28;3264;-68
2022/09/19 15:46:22;;;;;;;;;;;13.90;99.90;;;12.86;73.82;95889.78;10434853;28;3276;-68
2022/09/19 15:51:25;;;;;;;;;;;13.80;99.90;;;12.88;74.34;95893.00;10437058;28;3331;-69
2022/09/19 15:56:29;;;;;;;;;;;13.80;99.90;;;12.83;76.16;95901.13;10435303;28;3295;-69
2022/09/19 16:01:34;;;;;;;;;;;13.80;99.90;;;12.81;78.08;95906.03;10434053;28;3423;-67
2022/09/19 16:11:59;;;;;;;;;;;13.70;99.90;;;12.35;85.49;95914.50;10432643;28;3315;-69
2022/09/19 16:17:03;;;;;;;;;;;13.50;99.90;;;12.32;87.45;95912.34;10434187;28;3292;-68
2022/09/19 16:22:06;;;;;;;;;;;13.30;99.90;;;12.24;89.07;95918.34;10430855;28;3340;-67
2022/09/19 16:27:09;;;;;;;;;;;13.30;99.90;;;12.07;87.68;95912.53;10432169;28;3416;-69
2022/09/19 16:32:12;;;;;;;;;;;;;;;12.02;88.97;95910.66;10434205;28;3276;-68
2022/09/19 16:37:15;;;;;;;;;;;13.10;99.90;;;11.95;86.99;95912.06;10431936;28;3396;-70
2022/09/19 16:42:18;;;;;;;;;;;13.00;99.90;;;11.80;88.16;95913.72;10429929;28;3359;-68
2022/09/19 16:47:21;;;;;;;;;;;12.90;99.90;;;11.67;88.79;95917.03;10428462;28;3390;-66
2022/09/19 16:52:24;;;;;;;;;;;12.80;99.90;;;11.59;89.92;95914.94;10439972;28;3320;-67
2022/09/19 16:57:27;;;;;;;;;;;;;;;11.36;94.70;95922.53;10447187;28;3432;-70
2022/09/19 17:02:30;;;;;;;;;;;;;;;11.18;98.26;95925.81;10445880;28;3383;-71
2022/09/19 17:07:34;;;;;;;;;;;12.30;99.90;;;11.06;96.82;95928.81;10445859;28;3354;-71
2022/09/19 17:12:37;;;;;;;;;;;12.20;99.90;;;10.83;100.00;95932.91;10441873;28;3377;-73
2022/09/19 17:17:40;;;;;;;;;;;12.10;99.90;;;10.81;100.00;95948.50;10443174;28;3343;-72
2022/09/19 17:22:48;;;;;;;;;;;12.00;99.90;;;10.79;100.00;95953.31;10443111;28;3336;-72
2022/09/19 17:27:50;;;;;;;;;;;11.90;99.90;;;10.88;100.00;95960.84;10444714;28;3348;-70
2022/09/19 17:32:54;;;;;;;;;;;11.90;99.90;;;10.89;100.00;95962.47;10442044;28;3404;-71
2022/09/19 17:37:57;;;;;;;;;;;12.00;99.90;;;10.73;100.00;95957.09;10449658;28;3308;-72
2022/09/19 17:43:01;;;;;;;;;;;11.90;99.90;;;10.73;100.00;95957.09;10445078;28;3280;-72
2022/09/19 17:48:04;;;;;;;;;;;11.90;99.90;;;10.71;100.00;95961.94;10445500;28;3319;-77
2022/09/19 17:53:07;;;;;;;;;;;11.80;99.90;;;10.69;100.00;95972.16;10445475;28;3359;-72
2022/09/19 17:58:10;;;;;;;;;;;11.80;99.90;;;10.57;100.00;95977.00;10447553;28;3324;-71
2022/09/19 18:03:19;;;;;;;;;;;11.70;99.90;;;10.51;100.00;95981.56;10441819;28;3328;-73
2022/09/19 18:08:22;;;;;;;;;;;11.60;99.90;;;10.51;100.00;95978.06;10441034;28;3328;-72
2022/09/19 18:13:24;;;;;;;;;;;11.60;99.90;;;10.50;100.00;95987.22;10447569;28;3308;-72
2022/09/19 18:18:27;;;;;;;;;;;11.70;99.90;;;10.45;100.00;95997.94;10439659;28;3626;-74
2022/09/19 18:23:30;;;;;;;;;;;11.60;99.90;;;10.24;100.00;96010.53;10441632;28;3253;-72
2022/09/19 18:28:33;;;;;;;;;;;;;;;9.96;100.00;96011.78;10427175;28;3348;-73
2022/09/19 18:33:36;;;;;;;;;;;11.10;99.90;;;9.78;100.00;96022.97;10441723;28;3528;-71
2022/09/19 18:38:42;;;;;;;;;;;;;;;9.44;100.00;96024.16;10442457;28;3296;-71
2022/09/19 18:43:46;;;;;;;;;;;;;;;9.37;100.00;96025.47;10437883;28;3432;-71
2022/09/19 18:48:49;;;;;;;;;;;;;;;9.23;100.00;96029.69;10438229;28;3327;-71
2022/09/19 18:53:53;;;;;;;;;;;;;;;9.09;100.00;96030.09;10446220;28;3300;-71
2022/09/19 18:58:56;;;;;;;;;;;;;;;8.94;100.00;96035.34;10441165;28;3305;-71
2022/09/19 19:03:59;;;;;;;;;;;;;;;9.01;100.00;96033.25;10444345;28;3662;-71
2022/09/19 19:09:04;;;;;;;;;;;;;;;9.06;100.00;96041.34;10445911;28;3339;-71
2022/09/19 19:14:08;;;;;;;;;;;;;;;9.04;100.00;96038.13;10440669;28;3419;-71
2022/09/19 19:19:12;;;;;;;;;;;;;;;8.85;100.00;96039.59;10446097;28;3379;-71
2022/09/19 19:24:16;;;;;;;;;;;;;;;8.77;100.00;96051.56;10444475;28;3404;-71
2022/09/19 19:29:19;;;;;;;;;;;;;;;8.77;100.00;96042.72;10428658;28;3482;-72
2022/09/19 19:34:22;;;;;;;;;;;;;;;8.83;100.00;96057.78;10439705;28;3339;-71
2022/09/19 19:39:25;;;;;;;;;;;;;;;8.76;100.00;96055.31;10438948;28;3331;-71
2022/09/19 19:44:30;;;;;;;;;;;;;;;8.78;100.00;96052.38;10427279;28;3708;-71
2022/09/19 19:49:33;;;;;;;;;;;;;;;8.79;100.00;96056.69;10436320;28;3301;-71
2022/09/19 19:54:37;;;;;;;;;;;;;;;8.70;100.00;96059.00;10444089;28;3444;-71
2022/09/19 19:59:43;;;;;;;;;;;;;;;8.61;100.00;96053.31;10431757;28;3391;-71
2022/09/19 20:04:47;;;;;;;;;;;;;;;8.59;100.00;96044.72;10439265;28;3443;-71
2022/09/19 20:09:50;;;;;;;;;;;;;;;8.59;100.00;96052.75;10440676;28;3256;-71
2022/09/19 20:14:54;;;;;;;;;;;;;;;8.73;100.00;96063.06;10430158;28;3454;-71
2022/09/19 20:19:58;;;;;;;;;;;;;;;8.96;100.00;96054.66;10440550;28;3442;-71
2022/09/19 20:25:01;;;;;;;;;;;;;;;9.01;100.00;96053.91;10447139;28;3387;-70
2022/09/19 20:30:05;;;;;;;;;;;;;;;9.06;100.00;96052.06;10440026;28;3359;-72
2022/09/19 20:35:08;;;;;;;;;;;;;;;9.05;100.00;96055.81;10451940;28;3449;-70
2022/09/19 20:40:11;;;;;;;;;;;;;;;9.03;100.00;96055.25;10448116;28;3432;-70
2022/09/19 20:45:16;;;;;;;;;;;;;;;9.07;100.00;96059.06;10443203;28;3284;-71
2022/09/19 20:50:19;;;;;;;;;;;;;;;9.10;100.00;96053.19;10441626;28;3296;-70
2022/09/19 20:55:22;;;;;;;;;;;;;;;9.03;100.00;96054.44;10442758;28;3312;-71
2022/09/19 21:00:26;;;;;;;;;;;;;;;9.02;100.00;96052.84;10442649;28;3696;-71
2022/09/19 21:05:29;;;;;;;;;;;;;;;8.99;100.00;96048.81;10438959;28;3323;-74
2022/09/19 21:10:35;;;;;;;;;;;;;;;8.96;100.00;96046.63;10447633;28;3335;-74
2022/09/19 21:15:39;;;;;;;;;;;;;;;8.85;100.00;96044.94;10449004;28;3320;-74
2022/09/19 21:20:42;;;;;;;;;;;;;;;8.90;100.00;96047.66;10449350;28;3272;-75
2022/09/19 21:25:48;;;;;;;;;;;;;;;8.90;100.00;96042.28;10443209;28;3371;-72
2022/09/19 21:30:51;;;;;;;;;;;;;;;8.93;100.00;96044.47;10459244;28;3336;-71
2022/09/19 21:35:55;;;;;;;;;;;;;;;9.01;100.00;96037.81;10440462;28;3404;-73
2022/09/19 21:40:58;;;;;;;;;;;;;;;9.02;100.00;96040.22;10440563;28;3394;-74
2022/09/19 21:46:01;;;;;;;;;;;;;;;9.18;100.00;96039.28;10449566;28;3330;-73
2022/09/19 21:51:04;;;;;;;;;;;;;;;9.09;100.00;96035.47;10425126;28;3418;-72
2022/09/19 21:56:08;;;;;;;;;;;;;;;9.08;100.00;96044.56;10445205;28;3372;-72
2022/09/19 22:01:12;;;;;;;;;;;;;;;8.97;100.00;96036.69;10443820;28;3340;-73
2022/09/19 22:06:15;;;;;;;;;;;;;;;9.00;100.00;96046.94;10441127;28;3277;-72
2022/09/19 22:11:19;;;;;;;;;;;;;;;9.06;100.00;96046.72;10445474;28;3484;-74
2022/09/19 22:16:22;;;;;;;;;;;;;;;9.12;100.00;96047.56;10442399;28;3371;-72
2022/09/19 22:21:26;;;;;;;;;;;;;;;9.13;100.00;96038.44;10441392;28;3307;-72
2022/09/19 22:26:33;;;;;;;;;;;;;;;9.17;100.00;96044.91;10436234;28;3276;-71
2022/09/19 22:31:36;;;;;;;;;;;;;;;9.08;100.00;96043.75;10437777;28;3446;-74
2022/09/19 22:36:39;;;;;;;;;;;;;;;9.12;100.00;96052.94;10444508;28;3351;-72
2022/09/19 22:41:42;;;;;;;;;;;;;;;8.90;100.00;96047.66;10437095;28;3323;-71
2022/09/19 22:46:45;;;;;;;;;;;;;;;8.76;100.00;96054.50;10441305;28;3287;-71
2022/09/19 22:51:49;;;;;;;;;;;;;;;8.59;100.00;96046.59;10439981;28;3328;-70
2022/09/19 22:56:52;;;;;;;;;;;;;;;8.41;100.00;96049.63;10438004;28;3335;-71
2022/09/19 23:02:01;;;;;;;;;;;;;;;8.35;100.00;96048.75;10440602;28;3339;-71
2022/09/19 23:07:13;;;;;;;;;;;;;;;8.24;100.00;96044.34;10432318;28;3289;-71
2022/09/19 23:12:17;;;;;;;;;;;;;;;8.17;100.00;96049.88;10442277;28;3428;-70
2022/09/19 23:17:22;;;;;;;;;;;;;;;8.11;100.00;96048.22;10447145;28;3387;-71
2022/09/19 23:22:25;;;;;;;;;;;;;;;8.05;100.00;96043.84;10441062;28;3280;-72
2022/09/19 23:27:34;;;;;;;;;;;;;;;8.03;100.00;96049.47;10444765;28;3268;-71
2022/09/19 23:32:37;;;;;;;;;;;;;;;8.00;100.00;96039.25;10435967;28;3393;-72
2022/09/19 23:37:40;;;;;;;;;;;;;;;7.89;100.00;96036.69;10440703;28;3456;-71
2022/09/19 23:42:43;;;;;;;;;;;;;;;7.75;100.00;96036.28;10439092;28;3307;-72
2022/09/19 23:47:47;;;;;;;;;;;;;;;7.72;100.00;96052.84;10436760;28;3256;-72
2022/09/19 23:52:50;;;;;;;;;;;;;;;7.91;100.00;96051.47;10437125;28;3760;-72
2022/09/19 23:57:53;;;;;;;;;;;8.80;99.90;;;7.97;100.00;96047.00;10440367;28;3452;-72
